createdAt,value
2018-01-16T00:00:38.439Z,21.67
2018-01-16T00:03:05.906Z,19.43
2018-01-16T00:05:33.500Z,25.97
2018-01-16T00:08:00.964Z,25.30
2018-01-16T00:10:28.431Z,26.23
2018-01-16T00:12:56.362Z,23.47
2018-01-16T00:15:23.828Z,24.07
2018-01-16T00:17:51.293Z,25.00
2018-01-16T00:20:19.048Z,30.23
2018-01-16T00:22:46.504Z,26.00
2018-01-16T00:25:14.176Z,21.80
2018-01-16T00:27:41.860Z,27.07
2018-01-16T00:30:09.327Z,21.10
2018-01-16T00:32:36.792Z,25.87
2018-01-16T00:35:04.634Z,27.33
2018-01-16T00:37:32.085Z,26.33
2018-01-16T00:39:59.540Z,23.70
2018-01-16T00:42:27.425Z,24.70
2018-01-16T00:44:54.889Z,21.03
2018-01-16T00:47:22.740Z,23.73
2018-01-16T00:49:50.716Z,23.47
2018-01-16T00:52:18.179Z,22.10
2018-01-16T00:54:45.644Z,26.60
2018-01-16T00:57:13.434Z,26.73
2018-01-16T00:59:40.911Z,26.00
2018-01-16T01:02:08.369Z,26.73
2018-01-16T01:04:36.084Z,35.30
2018-01-16T01:07:03.540Z,25.07
2018-01-16T01:09:31.014Z,25.63
2018-01-16T01:11:59.322Z,24.73
2018-01-16T01:14:26.788Z,25.03
2018-01-16T01:16:54.251Z,28.77
2018-01-16T01:19:22.077Z,29.77
2018-01-16T01:21:49.540Z,27.27
2018-01-16T01:24:17.006Z,29.13
2018-01-16T01:26:44.984Z,24.30
2018-01-16T01:29:12.453Z,47.53
2018-01-16T01:31:39.911Z,26.87
2018-01-16T01:34:07.773Z,29.87
2018-01-16T01:36:35.235Z,29.87
2018-01-16T01:39:02.703Z,30.17
2018-01-16T01:41:30.448Z,32.27
2018-01-16T01:43:57.905Z,27.07
2018-01-16T01:46:25.367Z,39.37
2018-01-16T01:49:04.700Z,34.60
2018-01-16T01:51:32.156Z,28.30
2018-01-16T01:53:59.612Z,30.60
2018-01-16T01:56:27.489Z,31.93
2018-01-16T01:58:54.956Z,32.47
2018-01-16T02:01:22.417Z,28.50
2018-01-16T02:03:50.176Z,27.57
2018-01-16T02:06:17.645Z,39.00
2018-01-16T02:08:45.100Z,26.40
2018-01-16T02:11:12.855Z,36.83
2018-01-16T02:13:41.317Z,38.90
2018-01-16T02:16:08.765Z,36.03
2018-01-16T02:18:36.471Z,41.23
2018-01-16T02:21:03.933Z,37.37
2018-01-16T02:23:31.399Z,29.07
2018-01-16T02:25:59.132Z,34.43
2018-01-16T02:28:26.596Z,30.73
2018-01-16T02:30:54.109Z,34.07
2018-01-16T02:33:22.145Z,32.57
2018-01-16T02:35:49.608Z,29.43
2018-01-16T02:38:17.066Z,31.00
2018-01-16T02:40:44.834Z,34.63
2018-01-16T02:43:21.129Z,28.33
2018-01-16T02:45:48.856Z,31.10
2018-01-16T02:48:16.321Z,36.63
2018-01-16T02:50:43.782Z,65.73
2018-01-16T02:53:11.654Z,47.70
2018-01-16T02:55:39.112Z,39.83
2018-01-16T03:04:49.969Z,44.40
2018-01-16T03:07:17.437Z,41.10
2018-01-16T03:09:44.888Z,45.20
2018-01-16T03:12:12.628Z,38.33
2018-01-16T03:14:40.481Z,39.10
2018-01-16T03:17:07.937Z,44.47
2018-01-16T03:19:35.924Z,46.63
2018-01-16T03:22:03.383Z,37.90
2018-01-16T03:24:30.836Z,42.27
2018-01-16T03:26:58.625Z,38.70
2018-01-16T03:29:26.089Z,49.33
2018-01-16T03:31:53.552Z,45.97
2018-01-16T03:34:21.321Z,45.47
2018-01-16T03:36:48.788Z,42.63
2018-01-16T03:39:16.251Z,47.87
2018-01-16T03:41:43.985Z,49.60
2018-01-16T03:44:11.447Z,43.57
2018-01-16T03:46:38.911Z,45.97
2018-01-16T03:49:06.684Z,39.83
2018-01-16T03:51:34.145Z,48.13
2018-01-16T03:54:01.605Z,50.30
2018-01-16T03:56:29.673Z,39.10
2018-01-16T03:58:57.135Z,43.03
2018-01-16T04:01:24.589Z,40.97
2018-01-16T04:03:52.665Z,39.90
2018-01-16T04:06:20.124Z,44.80
2018-01-16T04:08:47.597Z,38.63
2018-01-16T04:11:15.356Z,38.57
2018-01-16T04:20:27.099Z,44.60
2018-01-16T04:22:54.555Z,45.60
2018-01-16T04:25:22.012Z,55.57
2018-01-16T04:27:49.792Z,47.07
2018-01-16T04:30:17.254Z,53.63
2018-01-16T04:32:44.718Z,67.23
2018-01-16T04:35:12.485Z,52.03
2018-01-16T04:37:39.945Z,55.57
2018-01-16T04:40:07.413Z,47.80
2018-01-16T04:42:35.133Z,57.20
2018-01-16T04:45:02.588Z,75.97
2018-01-16T04:47:30.037Z,47.43
2018-01-16T04:49:57.851Z,58.00
2018-01-16T04:52:25.316Z,49.60
2018-01-16T04:54:53.957Z,46.77
2018-01-16T04:57:21.779Z,38.63
2018-01-16T04:59:49.241Z,45.70
2018-01-16T05:02:16.737Z,52.13
2018-01-16T05:04:44.460Z,47.30
2018-01-16T05:07:11.929Z,54.40
2018-01-16T05:09:39.391Z,45.83
2018-01-16T05:12:07.440Z,53.30
2018-01-16T05:14:34.905Z,58.70
2018-01-16T05:17:02.670Z,47.67
2018-01-16T05:19:30.600Z,57.03
2018-01-16T05:28:42.497Z,48.50
2018-01-16T05:31:09.956Z,54.50
2018-01-16T05:33:37.418Z,50.43
2018-01-16T05:36:05.494Z,57.87
2018-01-16T05:38:32.963Z,48.83
2018-01-16T05:41:00.442Z,54.80
2018-01-16T05:43:28.176Z,51.40
2018-01-16T05:45:55.639Z,53.00
2018-01-16T05:48:23.110Z,55.87
2018-01-16T05:50:50.864Z,51.50
2018-01-16T05:53:18.323Z,62.10
2018-01-16T05:55:45.788Z,50.37
2018-01-16T05:58:13.552Z,45.57
2018-01-16T06:00:41.013Z,57.63
2018-01-16T06:03:08.468Z,54.57
2018-01-16T06:05:36.232Z,55.97
2018-01-16T06:08:03.684Z,49.97
2018-01-16T06:10:31.145Z,49.77
2018-01-16T06:12:58.937Z,42.13
2018-01-16T06:15:26.390Z,56.50
2018-01-16T06:17:53.851Z,58.27
2018-01-16T06:20:21.608Z,56.83
2018-01-16T06:22:51.314Z,61.73
2018-01-16T06:25:18.765Z,49.67
2018-01-16T06:27:46.449Z,57.07
2018-01-16T06:30:13.901Z,53.27
2018-01-16T06:32:41.401Z,58.20
2018-01-16T06:35:09.130Z,57.33
2018-01-16T06:37:36.612Z,49.60
2018-01-16T06:40:04.077Z,56.53
2018-01-16T06:42:31.821Z,58.83
2018-01-16T06:44:59.288Z,50.00
2018-01-16T06:47:26.753Z,73.97
2018-01-16T06:49:54.860Z,53.60
2018-01-16T06:52:22.319Z,69.07
2018-01-16T06:54:49.779Z,59.20
2018-01-16T06:57:17.807Z,56.33
2018-01-16T06:59:45.266Z,69.40
2018-01-16T07:02:12.717Z,55.77
2018-01-16T07:04:40.491Z,59.00
2018-01-16T07:07:07.962Z,50.17
2018-01-16T07:09:35.416Z,47.60
2018-01-16T07:12:03.190Z,46.90
2018-01-16T07:14:30.650Z,55.60
2018-01-16T07:16:58.116Z,49.37
2018-01-16T07:19:25.873Z,57.07
2018-01-16T07:21:53.337Z,56.13
2018-01-16T07:24:21.439Z,45.80
2018-01-16T07:26:49.173Z,54.77
2018-01-16T07:29:16.645Z,57.27
2018-01-16T07:31:44.110Z,55.47
2018-01-16T07:34:11.698Z,45.47
2018-01-16T07:36:39.163Z,56.33
2018-01-16T07:39:06.633Z,48.20
2018-01-16T07:41:34.542Z,49.77
2018-01-16T07:44:02.938Z,52.57
2018-01-16T07:46:30.391Z,44.53
2018-01-16T07:48:58.143Z,47.97
2018-01-16T07:51:25.597Z,47.70
2018-01-16T07:53:53.057Z,46.40
2018-01-16T07:56:20.836Z,47.73
2018-01-16T07:58:48.295Z,46.63
2018-01-16T08:01:15.756Z,38.00
2018-01-16T08:03:43.528Z,49.07
2018-01-16T08:06:10.980Z,46.53
2018-01-16T08:08:38.448Z,57.67
2018-01-16T08:11:06.216Z,41.33
2018-01-16T08:13:33.684Z,53.97
2018-01-16T08:16:01.140Z,47.37
2018-01-16T08:18:29.201Z,59.40
2018-01-16T08:20:56.676Z,56.80
2018-01-16T08:23:24.131Z,59.70
2018-01-16T08:25:53.764Z,49.60
2018-01-16T08:28:21.221Z,49.67
2018-01-16T08:30:48.680Z,58.17
2018-01-16T08:33:16.728Z,53.03
2018-01-16T08:35:44.184Z,52.00
2018-01-16T08:38:11.640Z,60.23
2018-01-16T08:40:39.338Z,58.50
2018-01-16T08:43:06.795Z,67.03
2018-01-16T08:45:34.251Z,57.60
2018-01-16T08:48:02.116Z,60.27
2018-01-16T08:50:29.584Z,66.50
2018-01-16T08:52:57.050Z,64.90
2018-01-16T08:55:24.792Z,48.67
2018-01-16T08:57:52.262Z,52.17
2018-01-16T09:00:19.723Z,48.50
2018-01-16T09:02:47.468Z,41.87
2018-01-16T09:05:14.922Z,47.90
2018-01-16T09:07:42.380Z,75.73
2018-01-16T09:10:10.272Z,37.43
2018-01-16T09:12:37.721Z,38.67
2018-01-16T09:15:05.173Z,42.93
2018-01-16T09:17:33.461Z,49.17
2018-01-16T09:20:00.920Z,38.97
2018-01-16T09:22:28.371Z,47.73
2018-01-16T09:24:56.364Z,47.40
2018-01-16T09:27:24.301Z,43.40
2018-01-16T09:29:51.750Z,43.30
2018-01-16T09:32:19.772Z,38.70
2018-01-16T09:34:47.229Z,58.00
2018-01-16T09:37:14.684Z,44.47
2018-01-16T09:39:42.361Z,46.27
2018-01-16T09:42:09.816Z,38.77
2018-01-16T09:44:37.276Z,43.70
2018-01-16T09:47:05.128Z,57.93
2018-01-16T09:49:32.589Z,51.33
2018-01-16T09:52:00.044Z,63.43
2018-01-16T09:54:27.832Z,43.07
2018-01-16T09:56:55.289Z,52.60
2018-01-16T09:59:22.751Z,53.17
2018-01-16T10:01:50.499Z,52.40
2018-01-16T10:04:17.968Z,60.43
2018-01-16T10:06:45.418Z,48.23
2018-01-16T10:09:13.193Z,60.63
2018-01-16T10:11:40.644Z,50.47
2018-01-16T10:14:08.098Z,50.00
2018-01-16T10:16:35.877Z,51.93
2018-01-16T10:19:03.492Z,72.27
2018-01-16T10:21:30.953Z,51.90
2018-01-16T10:23:58.703Z,56.23
2018-01-16T10:26:26.182Z,49.30
2018-01-16T10:28:55.716Z,58.80
2018-01-16T10:31:23.440Z,44.77
2018-01-16T10:33:50.893Z,45.40
2018-01-16T10:36:18.341Z,41.70
2018-01-16T10:38:46.093Z,42.27
2018-01-16T10:41:13.550Z,48.23
2018-01-16T10:43:41.004Z,38.23
2018-01-16T10:46:08.776Z,41.27
2018-01-16T10:48:36.579Z,53.20
2018-01-16T10:51:04.030Z,54.73
2018-01-16T10:53:31.780Z,43.47
2018-01-16T10:55:59.241Z,47.80
2018-01-16T10:58:26.703Z,54.57
2018-01-16T11:00:54.436Z,47.17
2018-01-16T11:03:21.901Z,48.00
2018-01-16T11:05:49.360Z,48.13
2018-01-16T11:08:17.153Z,44.33
2018-01-16T11:10:44.609Z,47.63
2018-01-16T11:13:12.069Z,48.37
2018-01-16T11:15:39.840Z,42.30
2018-01-16T11:18:07.304Z,51.20
2018-01-16T11:20:34.765Z,47.03
2018-01-16T11:23:02.833Z,60.80
2018-01-16T11:25:30.292Z,60.40
2018-01-16T11:27:57.751Z,59.83
2018-01-16T11:30:26.745Z,51.43
2018-01-16T11:32:54.195Z,57.43
2018-01-16T11:35:21.665Z,60.53
2018-01-16T11:37:49.437Z,51.80
2018-01-16T11:40:16.891Z,58.23
2018-01-16T11:42:44.344Z,62.47
2018-01-16T11:45:12.434Z,71.20
2018-01-16T11:47:39.892Z,49.57
2018-01-16T11:50:07.344Z,52.47
2018-01-16T11:52:35.736Z,56.23
2018-01-16T11:55:03.201Z,62.17
2018-01-16T12:04:14.652Z,54.57
2018-01-16T12:06:42.112Z,80.33
2018-01-16T12:09:10.349Z,68.60
2018-01-16T12:11:38.069Z,78.23
2018-01-16T12:14:05.528Z,94.13
2018-01-16T12:16:32.977Z,90.53
2018-01-16T12:19:00.953Z,66.73
2018-01-16T12:21:28.393Z,90.40
2018-01-16T12:23:55.849Z,80.97
2018-01-16T12:26:23.609Z,74.73
2018-01-16T12:28:51.081Z,67.07
2018-01-16T12:31:19.221Z,66.20
2018-01-16T12:33:46.851Z,61.33
2018-01-16T12:36:14.311Z,62.93
2018-01-16T12:38:41.761Z,50.93
2018-01-16T12:41:09.632Z,59.17
2018-01-16T12:43:37.091Z,48.60
2018-01-16T12:46:04.543Z,55.63
2018-01-16T12:48:32.414Z,60.33
2018-01-16T12:50:59.867Z,47.87
2018-01-16T12:53:27.323Z,72.93
2018-01-16T12:55:55.274Z,93.33
2018-01-16T12:58:22.724Z,50.60
2018-01-16T13:00:50.181Z,56.83
2018-01-16T13:03:18.273Z,52.97
2018-01-16T13:05:45.724Z,53.40
2018-01-16T13:08:13.182Z,80.87
2018-01-16T13:10:41.281Z,47.10
2018-01-16T13:13:08.740Z,56.40
2018-01-16T13:15:36.192Z,43.93
2018-01-16T13:18:03.952Z,42.33
2018-01-16T13:20:31.409Z,55.30
2018-01-16T13:22:58.863Z,40.23
2018-01-16T13:25:26.637Z,48.37
2018-01-16T13:27:54.096Z,49.33
2018-01-16T13:30:21.544Z,51.57
2018-01-16T13:32:50.865Z,54.63
2018-01-16T13:35:18.316Z,47.23
2018-01-16T13:37:45.760Z,54.77
2018-01-16T13:40:13.608Z,57.10
2018-01-16T13:42:41.040Z,62.83
2018-01-16T13:45:08.495Z,54.33
2018-01-16T13:47:36.244Z,51.97
2018-01-16T13:50:03.696Z,47.70
2018-01-16T13:52:31.144Z,52.27
2018-01-16T13:54:58.932Z,46.70
2018-01-16T13:57:26.400Z,51.60
2018-01-16T13:59:53.848Z,50.33
2018-01-16T14:02:21.604Z,43.60
2018-01-16T14:04:49.060Z,52.00
2018-01-16T14:07:16.517Z,49.60
2018-01-16T14:09:44.604Z,46.80
2018-01-16T14:12:12.061Z,53.83
2018-01-16T14:14:39.513Z,55.67
2018-01-16T14:17:07.208Z,52.57
2018-01-16T14:19:34.681Z,52.43
2018-01-16T14:22:02.136Z,81.73
2018-01-16T14:24:30.286Z,59.83
2018-01-16T14:26:57.742Z,57.13
2018-01-16T14:29:25.195Z,69.80
2018-01-16T14:31:52.983Z,89.20
2018-01-16T14:34:20.806Z,67.67
2018-01-16T14:36:48.264Z,80.40
2018-01-16T14:39:16.065Z,72.77
2018-01-16T14:41:43.512Z,74.17
2018-01-16T14:44:10.969Z,70.57
2018-01-16T14:46:38.661Z,85.43
2018-01-16T14:49:06.114Z,80.83
2018-01-16T14:51:33.566Z,95.87
2018-01-16T14:54:01.652Z,76.63
2018-01-16T14:56:29.114Z,89.97
2018-01-16T14:58:56.567Z,89.30
2018-01-16T15:01:24.339Z,68.03
2018-01-16T15:03:51.798Z,74.57
2018-01-16T15:06:19.265Z,79.70
2018-01-16T15:08:47.506Z,77.93
2018-01-16T15:11:14.956Z,80.07
2018-01-16T15:13:42.407Z,80.37
2018-01-16T15:16:10.324Z,85.40
2018-01-16T15:18:37.776Z,77.87
2018-01-16T15:21:05.238Z,63.10
2018-01-16T15:23:33.020Z,78.33
2018-01-16T15:26:00.480Z,66.17
2018-01-16T15:28:27.936Z,79.70
2018-01-16T15:30:55.639Z,95.37
2018-01-16T15:33:23.117Z,76.37
2018-01-16T15:35:52.416Z,82.87
2018-01-16T15:38:20.244Z,26.30
2018-01-16T15:40:47.708Z,45.30
2018-01-16T15:43:15.191Z,22.23
2018-01-16T15:45:42.921Z,29.97
2018-01-16T15:48:10.388Z,23.13
2018-01-16T15:50:37.869Z,17.57
2018-01-16T15:53:05.683Z,15.20
2018-01-16T15:55:33.160Z,24.70
2018-01-16T15:58:00.637Z,13.50
2018-01-16T16:00:28.614Z,18.80
2018-01-16T16:02:56.085Z,17.97
2018-01-16T16:05:23.570Z,16.33
2018-01-16T16:07:51.183Z,13.43
2018-01-16T16:10:18.655Z,9.10
2018-01-16T16:12:46.138Z,10.50
2018-01-16T16:15:13.981Z,6.90
2018-01-16T16:17:41.464Z,2.30
2018-01-16T16:20:08.944Z,4.87
2018-01-16T16:22:36.675Z,1.37
2018-01-16T16:25:04.148Z,0.50
2018-01-16T16:27:31.621Z,0.70
2018-01-16T16:29:59.571Z,0.47
2018-01-16T16:32:27.040Z,1.90
2018-01-16T16:34:54.517Z,0.93
2018-01-16T16:37:22.632Z,0.90
2018-01-16T16:39:50.116Z,2.77
2018-01-16T16:42:17.617Z,0.60
2018-01-16T16:44:45.645Z,0.70
2018-01-16T16:47:13.121Z,1.57
2018-01-16T16:49:40.608Z,9.83
2018-01-16T16:52:08.640Z,0.80
2018-01-16T16:54:36.112Z,0.80
2018-01-16T16:57:03.580Z,1.20
2018-01-16T16:59:31.797Z,1.80
2018-01-16T17:01:59.276Z,1.00
2018-01-16T17:04:26.760Z,5.30
2018-01-16T17:06:54.631Z,2.10
2018-01-16T17:09:22.108Z,1.73
2018-01-16T17:11:49.607Z,1.10
2018-01-16T17:14:17.309Z,1.67
2018-01-16T17:16:44.811Z,1.23
2018-01-16T17:19:12.283Z,1.47
2018-01-16T17:21:40.010Z,2.10
2018-01-16T17:24:07.591Z,1.93
2018-01-16T17:26:35.252Z,9.70
2018-01-16T17:29:03.306Z,1.50
2018-01-16T17:31:30.786Z,1.50
2018-01-16T17:33:58.272Z,0.97
2018-01-16T17:36:26.896Z,1.43
2018-01-16T17:38:56.396Z,3.37
2018-01-16T17:41:24.370Z,2.30
2018-01-16T17:43:52.370Z,2.63
2018-01-16T17:46:19.848Z,2.67
2018-01-16T17:48:47.325Z,3.00
2018-01-16T17:51:15.368Z,4.17
2018-01-16T17:53:42.886Z,2.20
2018-01-16T17:56:10.404Z,1.77
2018-01-16T17:58:38.261Z,2.37
2018-01-16T18:01:05.733Z,5.13
2018-01-16T18:03:33.229Z,7.13
2018-01-16T18:06:01.037Z,2.93
2018-01-16T18:08:28.514Z,7.23
2018-01-16T18:10:56.000Z,19.50
2018-01-16T18:13:24.394Z,2.37
2018-01-16T18:15:51.873Z,7.60
2018-01-16T18:18:19.567Z,7.87
2018-01-16T18:20:47.621Z,2.67
2018-01-16T18:23:15.101Z,1.87
2018-01-16T18:25:42.577Z,1.50
2018-01-16T18:28:10.324Z,2.30
2018-01-16T18:30:37.836Z,4.40
2018-01-16T18:33:05.439Z,4.10
2018-01-16T18:35:33.329Z,1.90
2018-01-16T18:38:00.856Z,4.73
2018-01-16T18:40:29.237Z,3.00
2018-01-16T18:42:56.932Z,1.87
2018-01-16T18:45:24.402Z,2.33
2018-01-16T18:47:51.873Z,3.57
2018-01-16T18:50:19.926Z,4.60
2018-01-16T18:52:47.441Z,11.23
2018-01-16T18:55:14.912Z,4.00
2018-01-16T18:57:42.936Z,3.63
2018-01-16T19:00:10.406Z,2.70
2018-01-16T19:02:37.877Z,2.93
2018-01-16T19:05:06.221Z,3.90
2018-01-16T19:07:33.701Z,4.10
2018-01-16T19:10:01.183Z,22.00
2018-01-16T19:12:29.216Z,6.57
2018-01-16T19:14:56.678Z,11.10
2018-01-16T19:17:24.346Z,6.07
2018-01-16T19:19:52.070Z,6.00
2018-01-16T19:22:19.520Z,12.33
2018-01-16T19:24:47.054Z,7.13
2018-01-16T19:27:14.890Z,5.40
2018-01-16T19:29:42.444Z,3.50
2018-01-16T19:32:09.901Z,3.90
2018-01-16T19:34:37.913Z,8.03
2018-01-16T19:37:05.361Z,2.43
2018-01-16T19:39:33.064Z,3.20
2018-01-16T19:42:01.806Z,3.50
2018-01-16T19:44:29.272Z,4.87
2018-01-16T19:46:56.723Z,5.00
2018-01-16T19:49:24.495Z,4.43
2018-01-16T19:51:51.962Z,10.57
2018-01-16T19:54:19.424Z,36.83
2018-01-16T19:56:47.189Z,17.53
2018-01-16T19:59:14.714Z,14.30
2018-01-16T20:01:42.147Z,5.43
2018-01-16T20:04:09.874Z,3.37
2018-01-16T20:06:37.342Z,4.23
2018-01-16T20:09:06.162Z,2.63
2018-01-16T20:11:35.418Z,2.17
2018-01-16T20:14:03.403Z,2.00
2018-01-16T20:16:30.952Z,4.10
2018-01-16T20:18:58.936Z,3.60
2018-01-16T20:21:27.132Z,4.97
2018-01-16T20:23:55.499Z,7.30
2018-01-16T20:26:25.038Z,2.60
2018-01-16T20:28:52.712Z,4.90
2018-01-16T20:31:20.237Z,5.00
2018-01-16T20:33:47.976Z,4.40
2018-01-16T20:36:16.376Z,3.97
2018-01-16T20:38:43.840Z,2.83
2018-01-16T20:41:11.600Z,3.57
2018-01-16T20:43:40.358Z,1.90
2018-01-16T20:46:08.308Z,2.43
2018-01-16T20:48:36.063Z,2.20
2018-01-16T20:51:04.054Z,2.37
2018-01-16T20:53:31.501Z,2.83
2018-01-16T20:55:59.274Z,1.70
2018-01-16T20:58:26.927Z,2.00
2018-01-16T21:00:54.369Z,0.90
2018-01-16T21:03:22.109Z,1.67
2018-01-16T21:05:49.795Z,1.40
2018-01-16T21:08:17.285Z,4.73
2018-01-16T21:10:45.114Z,1.00
2018-01-16T21:13:12.569Z,0.97
2018-01-16T21:15:40.376Z,0.90
2018-01-16T21:18:08.108Z,1.23
2018-01-16T21:20:35.793Z,1.40
2018-01-16T21:23:03.872Z,1.10
2018-01-16T21:25:31.706Z,1.93
2018-01-16T21:27:59.220Z,2.57
2018-01-16T21:30:26.728Z,1.30
2018-01-16T21:32:55.296Z,2.30
2018-01-16T21:35:22.735Z,1.00
2018-01-16T21:37:50.461Z,2.43
2018-01-16T21:40:18.304Z,1.57
2018-01-16T21:42:45.776Z,1.37
2018-01-16T21:45:14.339Z,4.53
2018-01-16T21:47:42.112Z,4.80
2018-01-16T21:50:09.560Z,2.70
2018-01-16T21:52:37.011Z,7.37
2018-01-16T21:55:04.616Z,6.20
2018-01-16T21:57:32.094Z,10.10
2018-01-16T21:59:59.563Z,6.13
2018-01-16T22:02:27.342Z,5.00
2018-01-16T22:04:54.802Z,4.83
2018-01-16T22:07:22.262Z,5.53
2018-01-16T22:09:50.298Z,3.90
2018-01-16T22:12:17.757Z,5.13
2018-01-16T22:14:45.213Z,1.77
2018-01-16T22:17:12.970Z,1.03
2018-01-16T22:19:40.449Z,1.57
2018-01-16T22:22:07.903Z,3.97
2018-01-16T22:24:35.825Z,1.80
2018-01-16T22:27:03.275Z,0.93
2018-01-16T22:29:30.731Z,1.50
2018-01-16T22:31:59.853Z,0.70
2018-01-16T22:34:27.295Z,0.97
2018-01-16T22:36:54.753Z,0.70
2018-01-16T22:39:22.580Z,1.10
2018-01-16T22:41:50.025Z,1.53
2018-01-16T22:44:17.477Z,1.57
2018-01-16T22:46:46.192Z,1.37
2018-01-16T22:49:13.657Z,0.83
2018-01-16T22:51:41.107Z,0.60
2018-01-16T22:54:08.876Z,0.73
2018-01-16T22:56:36.321Z,0.80
2018-01-16T22:59:03.765Z,0.70
2018-01-16T23:01:31.561Z,0.70
2018-01-16T23:03:59.014Z,1.20
2018-01-16T23:06:26.457Z,0.87
2018-01-16T23:08:54.239Z,1.57
2018-01-16T23:11:21.685Z,0.70
2018-01-16T23:13:49.142Z,1.13
2018-01-16T23:16:17.172Z,0.70
2018-01-16T23:18:44.616Z,3.10
2018-01-16T23:21:12.060Z,1.90
2018-01-16T23:23:39.936Z,1.20
2018-01-16T23:26:07.384Z,0.70
2018-01-16T23:28:34.829Z,0.90
2018-01-16T23:31:02.969Z,1.30
2018-01-16T23:33:30.429Z,0.60
2018-01-16T23:35:57.884Z,2.90
2018-01-16T23:38:25.849Z,6.33
2018-01-16T23:40:53.300Z,1.13
2018-01-16T23:43:20.744Z,1.93
2018-01-16T23:45:48.597Z,1.00
2018-01-16T23:48:16.976Z,0.50
2018-01-16T23:50:44.417Z,1.13
2018-01-16T23:53:12.486Z,0.83
2018-01-16T23:55:39.932Z,0.70
2018-01-16T23:58:07.385Z,0.77
